sensor_id;sensor_type;location;lat;lon;timestamp;pressure;altitude;pressure_sealevel;temperature;humidity
6835;BME280;3455;42.150;24.734;2023-04-08T00:01:40;66574.81;;;12.33;40.91
6835;BME280;3455;42.150;24.734;2023-04-08T00:04:07;66601.97;;;12.57;40.91
6835;BME280;3455;42.150;24.734;2023-04-08T00:06:36;66645.41;;;12.89;40.25
6835;BME280;3455;42.150;24.734;2023-04-08T00:09:03;66780.06;;;12.84;40.32
6835;BME280;3455;42.150;24.734;2023-04-08T00:11:30;66604.28;;;12.70;40.08
6835;BME280;3455;42.150;24.734;2023-04-08T00:13:56;66601.25;;;12.52;40.63
6835;BME280;3455;42.150;24.734;2023-04-08T00:16:23;66570.78;;;12.52;40.88
6835;BME280;3455;42.150;24.734;2023-04-08T00:18:50;66633.38;;;12.71;40.93
6835;BME280;3455;42.150;24.734;2023-04-08T00:21:17;66594.81;;;12.41;42.04
6835;BME280;3455;42.150;24.734;2023-04-08T00:23:46;66606.47;;;12.56;40.94
6835;BME280;3455;42.150;24.734;2023-04-08T00:26:13;66670.25;;;12.77;40.69
6835;BME280;3455;42.150;24.734;2023-04-08T00:28:40;66610.28;;;12.62;40.98
6835;BME280;3455;42.150;24.734;2023-04-08T00:31:07;66591.09;;;12.52;41.12
6835;BME280;3455;42.150;24.734;2023-04-08T00:33:34;66581.16;;;12.27;41.93
6835;BME280;3455;42.150;24.734;2023-04-08T00:36:01;66566.84;;;12.07;42.46
6835;BME280;3455;42.150;24.734;2023-04-08T00:38:28;66568.00;;;12.31;42.45
6835;BME280;3455;42.150;24.734;2023-04-08T00:40:56;66595.94;;;12.42;42.64
6835;BME280;3455;42.150;24.734;2023-04-08T00:43:23;66583.72;;;12.27;42.61
6835;BME280;3455;42.150;24.734;2023-04-08T00:45:50;66593.41;;;12.31;42.80
6835;BME280;3455;42.150;24.734;2023-04-08T00:48:17;66553.44;;;12.14;43.84
6835;BME280;3455;42.150;24.734;2023-04-08T00:50:44;66559.47;;;12.05;43.83
6835;BME280;3455;42.150;24.734;2023-04-08T00:53:12;66599.03;;;12.09;43.89
6835;BME280;3455;42.150;24.734;2023-04-08T00:55:38;66547.44;;;11.99;43.71
6835;BME280;3455;42.150;24.734;2023-04-08T00:58:07;66565.69;;;12.18;43.86
6835;BME280;3455;42.150;24.734;2023-04-08T01:00:34;66580.47;;;12.22;43.46
6835;BME280;3455;42.150;24.734;2023-04-08T01:03:15;66571.94;;;12.19;43.95
6835;BME280;3455;42.150;24.734;2023-04-08T01:05:52;66558.88;;;12.27;44.47
6835;BME280;3455;42.150;24.734;2023-04-08T01:08:23;66599.06;;;12.43;44.65
6835;BME280;3455;42.150;24.734;2023-04-08T01:10:53;66597.97;;;11.90;46.64
6835;BME280;3455;42.150;24.734;2023-04-08T01:13:27;66539.16;;;12.05;48.53
6835;BME280;3455;42.150;24.734;2023-04-08T01:15:55;66538.22;;;11.91;50.04
6835;BME280;3455;42.150;24.734;2023-04-08T01:18:23;66568.94;;;12.23;49.60
6835;BME280;3455;42.150;24.734;2023-04-08T01:20:50;66574.81;;;12.33;50.51
6835;BME280;3455;42.150;24.734;2023-04-08T01:23:22;66593.88;;;12.38;51.39
6835;BME280;3455;42.150;24.734;2023-04-08T01:25:53;66564.31;;;12.19;52.64
6835;BME280;3455;42.150;24.734;2023-04-08T01:28:23;66541.84;;;11.81;52.95
6835;BME280;3455;42.150;24.734;2023-04-08T01:30:51;66564.53;;;12.05;53.76
6835;BME280;3455;42.150;24.734;2023-04-08T01:33:20;66542.47;;;11.93;54.03
6835;BME280;3455;42.150;24.734;2023-04-08T01:35:47;66512.13;;;11.97;55.13
6835;BME280;3455;42.150;24.734;2023-04-08T01:38:17;66532.75;;;11.77;56.47
6835;BME280;3455;42.150;24.734;2023-04-08T01:40:46;66537.94;;;11.82;55.88
6835;BME280;3455;42.150;24.734;2023-04-08T01:43:16;66574.69;;;12.05;55.90
6835;BME280;3455;42.150;24.734;2023-04-08T01:45:44;66555.75;;;11.93;56.01
6835;BME280;3455;42.150;24.734;2023-04-08T01:48:13;66509.00;;;12.19;55.44
6835;BME280;3455;42.150;24.734;2023-04-08T01:50:41;66515.22;;;11.98;56.28
6835;BME280;3455;42.150;24.734;2023-04-08T01:53:09;66596.88;;;12.12;56.00
6835;BME280;3455;42.150;24.734;2023-04-08T01:55:36;66545.78;;;11.80;56.81
6835;BME280;3455;42.150;24.734;2023-04-08T01:58:06;66567.28;;;12.03;56.73
6835;BME280;3455;42.150;24.734;2023-04-08T02:00:35;66555.41;;;12.02;56.89
6835;BME280;3455;42.150;24.734;2023-04-08T02:03:05;66552.94;;;11.73;58.49
6835;BME280;3455;42.150;24.734;2023-04-08T02:05:32;66548.09;;;11.82;57.81
6835;BME280;3455;42.150;24.734;2023-04-08T02:07:59;66509.06;;;11.56;58.73
6835;BME280;3455;42.150;24.734;2023-04-08T02:10:26;66490.88;;;11.72;58.17
6835;BME280;3455;42.150;24.734;2023-04-08T02:12:54;66546.38;;;11.80;58.13
6835;BME280;3455;42.150;24.734;2023-04-08T02:15:21;66492.91;;;11.42;59.47
6835;BME280;3455;42.150;24.734;2023-04-08T02:17:55;66542.31;;;11.77;58.74
6835;BME280;3455;42.150;24.734;2023-04-08T02:20:30;66571.94;;;12.07;58.00
6835;BME280;3455;42.150;24.734;2023-04-08T02:23:05;66541.38;;;11.62;59.37
6835;BME280;3455;42.150;24.734;2023-04-08T02:25:35;66553.28;;;11.86;59.15
6835;BME280;3455;42.150;24.734;2023-04-08T02:28:05;66558.06;;;11.95;58.46
6835;BME280;3455;42.150;24.734;2023-04-08T02:30:34;66615.13;;;12.19;57.83
6835;BME280;3455;42.150;24.734;2023-04-08T02:33:04;66571.41;;;11.89;58.57
6835;BME280;3455;42.150;24.734;2023-04-08T02:35:32;66584.16;;;12.00;58.43
6835;BME280;3455;42.150;24.734;2023-04-08T02:37:59;66577.25;;;12.05;58.11
6835;BME280;3455;42.150;24.734;2023-04-08T02:40:27;66534.44;;;11.56;60.16
6835;BME280;3455;42.150;24.734;2023-04-08T02:42:54;66533.09;;;11.68;59.94
6835;BME280;3455;42.150;24.734;2023-04-08T02:45:22;66542.81;;;11.95;59.78
6835;BME280;3455;42.150;24.734;2023-04-08T02:47:50;66552.94;;;11.73;60.01
6835;BME280;3455;42.150;24.734;2023-04-08T02:50:18;66565.44;;;11.97;59.92
6835;BME280;3455;42.150;24.734;2023-04-08T02:52:45;66488.88;;;11.38;62.00
6835;BME280;3455;42.150;24.734;2023-04-08T02:55:12;66502.78;;;11.10;63.60
6835;BME280;3455;42.150;24.734;2023-04-08T02:57:41;66489.41;;;11.16;63.75
6835;BME280;3455;42.150;24.734;2023-04-08T03:00:08;66458.66;;;11.14;64.06
6835;BME280;3455;42.150;24.734;2023-04-08T03:02:35;66513.69;;;11.38;63.00
6835;BME280;3455;42.150;24.734;2023-04-08T03:05:02;66532.13;;;11.54;62.66
6835;BME280;3455;42.150;24.734;2023-04-08T03:07:31;66535.81;;;11.44;63.57
6835;BME280;3455;42.150;24.734;2023-04-08T03:09:58;66455.97;;;10.98;63.96
6835;BME280;3455;42.150;24.734;2023-04-08T03:12:25;66532.72;;;11.55;63.15
6835;BME280;3455;42.150;24.734;2023-04-08T03:14:52;66552.91;;;11.61;62.78
6835;BME280;3455;42.150;24.734;2023-04-08T03:17:19;66516.00;;;11.62;63.33
6835;BME280;3455;42.150;24.734;2023-04-08T03:19:46;66487.38;;;11.46;64.17
6835;BME280;3455;42.150;24.734;2023-04-08T03:22:13;66490.72;;;11.33;64.45
6835;BME280;3455;42.150;24.734;2023-04-08T03:24:41;66527.03;;;11.43;64.58
6835;BME280;3455;42.150;24.734;2023-04-08T03:27:08;66507.88;;;11.21;64.50
6835;BME280;3455;42.150;24.734;2023-04-08T03:29:36;66490.94;;;11.31;63.62
6835;BME280;3455;42.150;24.734;2023-04-08T03:32:03;66516.41;;;11.36;65.03
6835;BME280;3455;42.150;24.734;2023-04-08T03:34:30;66523.81;;;11.38;64.99
6835;BME280;3455;42.150;24.734;2023-04-08T03:36:57;66441.22;;;11.16;65.59
6835;BME280;3455;42.150;24.734;2023-04-08T03:39:24;66484.09;;;11.07;65.52
6835;BME280;3455;42.150;24.734;2023-04-08T03:41:52;66480.47;;;11.40;64.84
6835;BME280;3455;42.150;24.734;2023-04-08T03:44:19;66492.88;;;11.19;65.86
6835;BME280;3455;42.150;24.734;2023-04-08T03:46:46;66499.38;;;11.41;64.48
6835;BME280;3455;42.150;24.734;2023-04-08T03:49:12;66548.66;;;11.60;64.04
6835;BME280;3455;42.150;24.734;2023-04-08T03:51:39;66504.44;;;11.29;65.00
6835;BME280;3455;42.150;24.734;2023-04-08T03:54:06;66537.25;;;11.88;63.37
6835;BME280;3455;42.150;24.734;2023-04-08T03:56:33;66536.75;;;11.58;62.96
6835;BME280;3455;42.150;24.734;2023-04-08T03:59:01;66554.75;;;11.56;64.46
6835;BME280;3455;42.150;24.734;2023-04-08T04:01:28;66551.78;;;11.72;63.81
6835;BME280;3455;42.150;24.734;2023-04-08T04:03:56;66478.97;;;11.36;65.06
6835;BME280;3455;42.150;24.734;2023-04-08T04:06:23;66525.78;;;11.48;64.83
6835;BME280;3455;42.150;24.734;2023-04-08T04:08:52;66555.25;;;11.75;64.01
6835;BME280;3455;42.150;24.734;2023-04-08T04:11:19;66571.41;;;11.89;63.03
6835;BME280;3455;42.150;24.734;2023-04-08T04:13:46;66569.19;;;11.69;64.30
6835;BME280;3455;42.150;24.734;2023-04-08T04:16:14;66547.16;;;11.79;64.10
6835;BME280;3455;42.150;24.734;2023-04-08T04:18:41;66555.25;;;11.75;63.85
6835;BME280;3455;42.150;24.734;2023-04-08T04:21:08;66565.63;;;11.84;64.18
6835;BME280;3455;42.150;24.734;2023-04-08T04:23:36;66533.31;;;11.66;64.70
6835;BME280;3455;42.150;24.734;2023-04-08T04:26:07;66609.66;;;11.94;64.16
6835;BME280;3455;42.150;24.734;2023-04-08T04:28:34;66600.72;;;11.88;63.47
6835;BME280;3455;42.150;24.734;2023-04-08T04:31:00;66541.84;;;11.81;63.76
6835;BME280;3455;42.150;24.734;2023-04-08T04:33:28;66571.78;;;12.03;63.72
6835;BME280;3455;42.150;24.734;2023-04-08T04:35:55;66602.84;;;12.03;63.37
6835;BME280;3455;42.150;24.734;2023-04-08T04:38:22;66529.19;;;11.92;64.09
6835;BME280;3455;42.150;24.734;2023-04-08T04:40:49;66629.88;;;12.12;63.03
6835;BME280;3455;42.150;24.734;2023-04-08T04:43:16;66628.06;;;12.39;62.74
6835;BME280;3455;42.150;24.734;2023-04-08T04:45:42;66576.06;;;11.93;63.24
6835;BME280;3455;42.150;24.734;2023-04-08T04:48:09;66551.69;;;11.90;64.17
6835;BME280;3455;42.150;24.734;2023-04-08T04:50:37;66560.13;;;12.11;64.07
6835;BME280;3455;42.150;24.734;2023-04-08T04:53:04;66570.72;;;11.84;64.55
6835;BME280;3455;42.150;24.734;2023-04-08T04:55:31;66559.69;;;12.15;63.71
6835;BME280;3455;42.150;24.734;2023-04-08T04:57:57;66654.63;;;12.52;62.74
6835;BME280;3455;42.150;24.734;2023-04-08T05:00:24;66617.69;;;12.53;62.49
6835;BME280;3455;42.150;24.734;2023-04-08T05:02:51;66625.06;;;12.55;62.61
6835;BME280;3455;42.150;24.734;2023-04-08T05:05:18;66649.47;;;12.58;62.93
6835;BME280;3455;42.150;24.734;2023-04-08T05:07:46;66600.91;;;12.15;64.03
6835;BME280;3455;42.150;24.734;2023-04-08T05:10:13;66639.63;;;12.50;63.15
6835;BME280;3455;42.150;24.734;2023-04-08T05:12:39;66650.25;;;12.45;62.55
6835;BME280;3455;42.150;24.734;2023-04-08T05:15:07;66638.69;;;12.35;63.35
6835;BME280;3455;42.150;24.734;2023-04-08T05:17:33;66668.97;;;12.94;61.18
6835;BME280;3455;42.150;24.734;2023-04-08T05:20:01;66651.88;;;12.88;61.41
6835;BME280;3455;42.150;24.734;2023-04-08T05:22:28;66688.66;;;13.11;60.16
6835;BME280;3455;42.150;24.734;2023-04-08T05:24:56;66717.44;;;13.10;60.78
6835;BME280;3455;42.150;24.734;2023-04-08T05:27:23;66729.34;;;13.11;60.23
6835;BME280;3455;42.150;24.734;2023-04-08T05:29:49;66683.78;;;13.20;59.80
6835;BME280;3455;42.150;24.734;2023-04-08T05:32:16;66704.34;;;12.96;60.79
6835;BME280;3455;42.150;24.734;2023-04-08T05:34:43;66693.97;;;12.98;60.67
6835;BME280;3455;42.150;24.734;2023-04-08T05:37:10;66718.25;;;13.19;59.75
6835;BME280;3455;42.150;24.734;2023-04-08T05:39:37;66739.09;;;13.38;59.34
6835;BME280;3455;42.150;24.734;2023-04-08T05:42:05;66689.00;;;13.14;59.79
6835;BME280;3455;42.150;24.734;2023-04-08T05:44:32;66710.16;;;13.12;60.46
6835;BME280;3455;42.150;24.734;2023-04-08T05:46:59;66783.06;;;13.77;58.03
6835;BME280;3455;42.150;24.734;2023-04-08T05:49:26;66763.59;;;13.91;57.42
6835;BME280;3455;42.150;24.734;2023-04-08T05:51:52;66750.16;;;13.97;57.44
6835;BME280;3455;42.150;24.734;2023-04-08T05:54:19;66901.06;;;13.98;57.19
6835;BME280;3455;42.150;24.734;2023-04-08T05:56:46;66758.75;;;13.89;57.37
6835;BME280;3455;42.150;24.734;2023-04-08T05:59:14;66860.63;;;14.46;56.14
6835;BME280;3455;42.150;24.734;2023-04-08T06:01:41;66853.22;;;14.66;55.76
6835;BME280;3455;42.150;24.734;2023-04-08T06:04:08;66832.25;;;14.20;56.12
6835;BME280;3455;42.150;24.734;2023-04-08T06:06:36;66819.97;;;14.28;57.12
6835;BME280;3455;42.150;24.734;2023-04-08T06:09:04;66791.63;;;14.02;56.36
6835;BME280;3455;42.150;24.734;2023-04-08T06:11:31;66825.31;;;14.14;56.46
6835;BME280;3455;42.150;24.734;2023-04-08T06:13:57;66880.75;;;15.04;53.37
6835;BME280;3455;42.150;24.734;2023-04-08T06:16:26;66846.69;;;14.56;55.17
6835;BME280;3455;42.150;24.734;2023-04-08T06:18:53;66924.59;;;14.89;54.45
6835;BME280;3455;42.150;24.734;2023-04-08T06:21:19;66927.13;;;15.23;53.61
6835;BME280;3455;42.150;24.734;2023-04-08T06:23:46;66950.97;;;15.48;52.46
6835;BME280;3455;42.150;24.734;2023-04-08T06:26:13;67017.69;;;15.85;50.89
6835;BME280;3455;42.150;24.734;2023-04-08T06:28:40;66952.78;;;15.77;50.77
6835;BME280;3455;42.150;24.734;2023-04-08T06:31:07;67053.13;;;16.70;48.91
6835;BME280;3455;42.150;24.734;2023-04-08T06:33:35;67062.78;;;16.70;48.47
6835;BME280;3455;42.150;24.734;2023-04-08T06:36:04;67184.78;;;17.32;47.56
6835;BME280;3455;42.150;24.734;2023-04-08T06:38:32;67075.53;;;16.54;47.59
6835;BME280;3455;42.150;24.734;2023-04-08T06:41:01;67155.78;;;17.34;47.02
6835;BME280;3455;42.150;24.734;2023-04-08T06:43:28;67150.19;;;17.65;45.56
6835;BME280;3455;42.150;24.734;2023-04-08T06:45:55;67134.72;;;17.61;45.80
6835;BME280;3455;42.150;24.734;2023-04-08T06:48:22;67184.09;;;17.66;45.90
6835;BME280;3455;42.150;24.734;2023-04-08T06:50:54;67284.91;;;18.57;44.03
6835;BME280;3455;42.150;24.734;2023-04-08T06:53:21;67237.47;;;18.24;43.29
6835;BME280;3455;42.150;24.734;2023-04-08T06:55:48;67320.72;;;18.80;43.72
6835;BME280;3455;42.150;24.734;2023-04-08T06:58:15;67413.19;;;19.34;41.24
6835;BME280;3455;42.150;24.734;2023-04-08T07:00:42;67414.22;;;19.58;41.27
6835;BME280;3455;42.150;24.734;2023-04-08T07:03:09;67439.03;;;19.98;40.19
6835;BME280;3455;42.150;24.734;2023-04-08T07:05:37;67535.94;;;21.02;37.70
6835;BME280;3455;42.150;24.734;2023-04-08T07:08:05;67496.53;;;20.44;37.65
6835;BME280;3455;42.150;24.734;2023-04-08T07:10:33;67541.44;;;20.72;38.47
6835;BME280;3455;42.150;24.734;2023-04-08T07:13:00;67613.03;;;21.67;36.99
6835;BME280;3455;42.150;24.734;2023-04-08T07:15:27;67839.75;;;23.30;34.02
6835;BME280;3455;42.150;24.734;2023-04-08T07:17:54;68014.22;;;24.27;32.06
6835;BME280;3455;42.150;24.734;2023-04-08T07:20:21;67754.50;;;22.35;33.37
6835;BME280;3455;42.150;24.734;2023-04-08T07:22:48;67854.28;;;23.23;33.01
6835;BME280;3455;42.150;24.734;2023-04-08T07:25:16;68167.13;;;25.59;29.94
6835;BME280;3455;42.150;24.734;2023-04-08T07:27:43;68114.81;;;25.52;29.86
6835;BME280;3455;42.150;24.734;2023-04-08T07:30:10;68315.97;;;27.19;27.73
6835;BME280;3455;42.150;24.734;2023-04-08T07:32:37;68088.50;;;25.29;29.03
6835;BME280;3455;42.150;24.734;2023-04-08T07:35:05;68244.72;;;26.29;28.23
6835;BME280;3455;42.150;24.734;2023-04-08T07:37:32;68295.00;;;26.69;27.30
6835;BME280;3455;42.150;24.734;2023-04-08T07:39:58;68412.13;;;27.26;26.43
6835;BME280;3455;42.150;24.734;2023-04-08T07:42:27;68418.38;;;27.58;26.42
6835;BME280;3455;42.150;24.734;2023-04-08T07:44:53;68288.84;;;26.82;27.38
6835;BME280;3455;42.150;24.734;2023-04-08T07:47:20;68557.91;;;28.35;24.92
6835;BME280;3455;42.150;24.734;2023-04-08T07:49:47;68279.69;;;26.51;26.81
6835;BME280;3455;42.150;24.734;2023-04-08T07:52:14;68315.50;;;26.66;26.82
6835;BME280;3455;42.150;24.734;2023-04-08T07:54:41;68183.63;;;25.98;27.18
6835;BME280;3455;42.150;24.734;2023-04-08T07:57:07;68249.91;;;26.29;27.17
6835;BME280;3455;42.150;24.734;2023-04-08T07:59:35;68158.19;;;25.78;28.34
6835;BME280;3455;42.150;24.734;2023-04-08T08:02:02;67969.75;;;24.52;29.58
6835;BME280;3455;42.150;24.734;2023-04-08T08:04:29;67992.44;;;24.67;29.42
6835;BME280;3455;42.150;24.734;2023-04-08T08:06:56;67901.34;;;23.87;30.74
6835;BME280;3455;42.150;24.734;2023-04-08T08:09:23;67914.38;;;23.76;30.05
6835;BME280;3455;42.150;24.734;2023-04-08T08:11:50;67704.94;;;22.39;32.34
6835;BME280;3455;42.150;24.734;2023-04-08T08:14:17;67769.19;;;23.05;31.72
6835;BME280;3455;42.150;24.734;2023-04-08T08:16:45;67799.09;;;23.24;31.88
6835;BME280;3455;42.150;24.734;2023-04-08T08:19:12;67853.47;;;23.45;31.40
6835;BME280;3455;42.150;24.734;2023-04-08T08:21:39;67782.78;;;23.10;32.01
6835;BME280;3455;42.150;24.734;2023-04-08T08:24:06;67850.25;;;23.40;30.63
6835;BME280;3455;42.150;24.734;2023-04-08T08:26:34;67743.78;;;22.80;32.13
6835;BME280;3455;42.150;24.734;2023-04-08T08:29:01;67742.84;;;22.57;31.53
6835;BME280;3455;42.150;24.734;2023-04-08T08:31:28;67730.47;;;22.73;31.66
6835;BME280;3455;42.150;24.734;2023-04-08T08:33:56;67941.34;;;23.88;29.34
6835;BME280;3455;42.150;24.734;2023-04-08T08:36:23;67794.19;;;23.22;30.52
6835;BME280;3455;42.150;24.734;2023-04-08T08:38:51;67755.31;;;22.65;32.22
6835;BME280;3455;42.150;24.734;2023-04-08T08:41:18;67927.25;;;23.87;31.14
6835;BME280;3455;42.150;24.734;2023-04-08T08:43:45;67974.75;;;24.42;30.79
6835;BME280;3455;42.150;24.734;2023-04-08T08:46:15;67895.44;;;24.14;29.60
6835;BME280;3455;42.150;24.734;2023-04-08T08:48:42;68035.88;;;24.82;29.42
6835;BME280;3455;42.150;24.734;2023-04-08T08:51:11;68156.81;;;25.84;27.19
6835;BME280;3455;42.150;24.734;2023-04-08T08:53:38;68252.03;;;26.17;27.13
6835;BME280;3455;42.150;24.734;2023-04-08T08:56:09;68215.75;;;26.22;27.32
6835;BME280;3455;42.150;24.734;2023-04-08T08:58:36;68310.09;;;26.73;27.05
6835;BME280;3455;42.150;24.734;2023-04-08T09:01:34;68155.00;;;25.78;26.48
6835;BME280;3455;42.150;24.734;2023-04-08T09:04:14;68099.81;;;25.16;28.11
6835;BME280;3455;42.150;24.734;2023-04-08T09:06:44;67896.53;;;23.74;29.55
6835;BME280;3455;42.150;24.734;2023-04-08T09:09:13;67744.66;;;22.63;30.90
6835;BME280;3455;42.150;24.734;2023-04-08T09:11:41;67713.34;;;22.44;31.99
6835;BME280;3455;42.150;24.734;2023-04-08T09:14:21;67918.50;;;24.16;29.70
6835;BME280;3455;42.150;24.734;2023-04-08T09:16:48;67815.13;;;23.36;30.61
6835;BME280;3455;42.150;24.734;2023-04-08T09:19:15;67868.00;;;23.53;30.32
6835;BME280;3455;42.150;24.734;2023-04-08T09:21:41;67804.16;;;23.15;30.14
6835;BME280;3455;42.150;24.734;2023-04-08T09:24:26;67751.13;;;22.73;30.92
6835;BME280;3455;42.150;24.734;2023-04-08T09:26:54;67885.38;;;21.55;32.13
6835;BME280;3455;42.150;24.734;2023-04-08T09:29:22;67621.09;;;21.86;33.48
6835;BME280;3455;42.150;24.734;2023-04-08T09:31:52;67650.88;;;22.16;32.85
6835;BME280;3455;42.150;24.734;2023-04-08T09:34:19;67586.09;;;21.34;33.41
6835;BME280;3455;42.150;24.734;2023-04-08T09:36:47;67590.66;;;21.18;33.92
6835;BME280;3455;42.150;24.734;2023-04-08T09:39:16;67745.75;;;22.43;31.87
6835;BME280;3455;42.150;24.734;2023-04-08T09:41:43;67879.16;;;23.67;29.63
6835;BME280;3455;42.150;24.734;2023-04-08T09:44:10;68190.47;;;26.11;26.54
6835;BME280;3455;42.150;24.734;2023-04-08T09:46:39;68244.84;;;26.38;25.76
6835;BME280;3455;42.150;24.734;2023-04-08T09:49:12;68217.41;;;26.19;25.87
6835;BME280;3455;42.150;24.734;2023-04-08T09:51:48;68566.25;;;28.51;23.02
6835;BME280;3455;42.150;24.734;2023-04-08T09:54:18;68682.25;;;29.30;23.11
6835;BME280;3455;42.150;24.734;2023-04-08T09:56:53;68588.91;;;28.94;22.72
6835;BME280;3455;42.150;24.734;2023-04-08T09:59:24;68397.78;;;27.36;23.64
6835;BME280;3455;42.150;24.734;2023-04-08T10:01:55;68139.38;;;25.73;25.61
6835;BME280;3455;42.150;24.734;2023-04-08T10:04:25;68391.53;;;27.44;23.61
6835;BME280;3455;42.150;24.734;2023-04-08T10:07:01;68367.31;;;27.09;24.07
6835;BME280;3455;42.150;24.734;2023-04-08T10:09:31;68389.94;;;27.31;24.06
6835;BME280;3455;42.150;24.734;2023-04-08T10:12:03;68350.91;;;27.15;23.70
6835;BME280;3455;42.150;24.734;2023-04-08T10:14:30;68679.81;;;29.23;22.32
6835;BME280;3455;42.150;24.734;2023-04-08T10:17:25;68475.06;;;28.15;22.82
6835;BME280;3455;42.150;24.734;2023-04-08T10:19:53;68341.81;;;27.05;24.46
6835;BME280;3455;42.150;24.734;2023-04-08T10:22:46;68410.28;;;27.61;24.01
6835;BME280;3455;42.150;24.734;2023-04-08T10:25:29;68385.09;;;27.38;24.21
6835;BME280;3455;42.150;24.734;2023-04-08T10:27:57;68451.00;;;27.73;24.08
6835;BME280;3455;42.150;24.734;2023-04-08T10:30:38;68442.59;;;27.52;23.78
6835;BME280;3455;42.150;24.734;2023-04-08T10:33:09;68193.34;;;25.93;25.44
6835;BME280;3455;42.150;24.734;2023-04-08T10:35:38;68031.69;;;25.11;26.63
6835;BME280;3455;42.150;24.734;2023-04-08T10:38:07;68116.56;;;25.53;26.52
6835;BME280;3455;42.150;24.734;2023-04-08T10:40:37;68146.69;;;25.61;26.42
6835;BME280;3455;42.150;24.734;2023-04-08T10:43:06;68379.75;;;27.29;24.28
6835;BME280;3455;42.150;24.734;2023-04-08T10:45:33;68229.94;;;26.07;25.78
6835;BME280;3455;42.150;24.734;2023-04-08T10:48:11;68159.81;;;25.91;26.17
6835;BME280;3455;42.150;24.734;2023-04-08T10:50:38;68242.25;;;26.59;25.87
6835;BME280;3455;42.150;24.734;2023-04-08T10:53:05;68369.41;;;27.34;24.53
6835;BME280;3455;42.150;24.734;2023-04-08T10:55:33;68267.75;;;26.63;24.73
6835;BME280;3455;42.150;24.734;2023-04-08T10:58:06;68181.53;;;25.94;25.55
6835;BME280;3455;42.150;24.734;2023-04-08T11:00:34;68144.63;;;25.78;26.67
6835;BME280;3455;42.150;24.734;2023-04-08T11:03:02;68298.59;;;26.76;26.02
6835;BME280;3455;42.150;24.734;2023-04-08T11:05:29;68389.72;;;27.38;24.18
6835;BME280;3455;42.150;24.734;2023-04-08T11:07:57;68273.84;;;26.46;25.38
6835;BME280;3455;42.150;24.734;2023-04-08T11:10:24;68307.44;;;26.89;24.93
6835;BME280;3455;42.150;24.734;2023-04-08T11:12:52;68352.34;;;27.14;25.00
6835;BME280;3455;42.150;24.734;2023-04-08T11:15:21;68332.81;;;26.84;24.97
6835;BME280;3455;42.150;24.734;2023-04-08T11:17:48;68370.78;;;26.71;24.81
6835;BME280;3455;42.150;24.734;2023-04-08T11:20:16;67956.28;;;24.40;27.80
6835;BME280;3455;42.150;24.734;2023-04-08T11:22:43;68057.88;;;25.24;27.12
6835;BME280;3455;42.150;24.734;2023-04-08T11:25:10;68174.50;;;25.88;26.18
6835;BME280;3455;42.150;24.734;2023-04-08T11:27:38;68256.94;;;26.35;25.28
6835;BME280;3455;42.150;24.734;2023-04-08T11:30:06;68252.63;;;26.18;25.54
6835;BME280;3455;42.150;24.734;2023-04-08T11:32:35;67892.31;;;23.97;28.36
6835;BME280;3455;42.150;24.734;2023-04-08T11:35:04;68083.22;;;25.24;26.62
6835;BME280;3455;42.150;24.734;2023-04-08T11:37:40;68113.03;;;25.50;26.77
6835;BME280;3455;42.150;24.734;2023-04-08T11:40:08;68039.28;;;24.97;27.19
6835;BME280;3455;42.150;24.734;2023-04-08T11:42:37;68247.25;;;26.45;25.90
6835;BME280;3455;42.150;24.734;2023-04-08T11:45:09;68314.97;;;26.70;25.98
6835;BME280;3455;42.150;24.734;2023-04-08T11:47:38;68263.44;;;26.46;25.87
6835;BME280;3455;42.150;24.734;2023-04-08T11:50:07;68209.81;;;26.12;25.88
6835;BME280;3455;42.150;24.734;2023-04-08T11:52:44;68269.84;;;26.67;25.69
6835;BME280;3455;42.150;24.734;2023-04-08T11:55:20;68153.81;;;25.56;26.60
6835;BME280;3455;42.150;24.734;2023-04-08T11:57:47;68061.91;;;25.23;27.19
6835;BME280;3455;42.150;24.734;2023-04-08T12:00:15;67989.72;;;24.78;27.50
6835;BME280;3455;42.150;24.734;2023-04-08T12:02:43;67908.53;;;23.70;29.08
6835;BME280;3455;42.150;24.734;2023-04-08T12:05:10;67849.69;;;23.60;29.90
6835;BME280;3455;42.150;24.734;2023-04-08T12:07:37;68018.91;;;24.83;28.71
6835;BME280;3455;42.150;24.734;2023-04-08T12:10:05;68060.44;;;25.04;27.70
6835;BME280;3455;42.150;24.734;2023-04-08T12:12:32;68226.56;;;26.13;26.91
6835;BME280;3455;42.150;24.734;2023-04-08T12:14:59;68331.06;;;27.03;25.25
6835;BME280;3455;42.150;24.734;2023-04-08T12:17:26;68197.69;;;26.11;26.85
6835;BME280;3455;42.150;24.734;2023-04-08T12:19:55;68187.72;;;26.02;26.90
6835;BME280;3455;42.150;24.734;2023-04-08T12:22:22;68163.72;;;25.81;26.82
6835;BME280;3455;42.150;24.734;2023-04-08T12:24:49;68266.31;;;26.44;26.67
6835;BME280;3455;42.150;24.734;2023-04-08T12:27:16;68192.00;;;26.19;26.16
6835;BME280;3455;42.150;24.734;2023-04-08T12:29:42;67996.72;;;24.84;28.04
6835;BME280;3455;42.150;24.734;2023-04-08T12:32:10;68006.69;;;24.57;28.57
6835;BME280;3455;42.150;24.734;2023-04-08T12:34:37;68051.06;;;24.96;27.65
6835;BME280;3455;42.150;24.734;2023-04-08T12:37:06;67931.88;;;24.07;29.04
6835;BME280;3455;42.150;24.734;2023-04-08T12:39:33;67950.38;;;24.30;28.82
6835;BME280;3455;42.150;24.734;2023-04-08T12:42:00;67968.13;;;24.23;29.23
6835;BME280;3455;42.150;24.734;2023-04-08T12:44:27;67940.09;;;23.98;29.86
6835;BME280;3455;42.150;24.734;2023-04-08T12:46:54;68012.28;;;24.84;28.12
6835;BME280;3455;42.150;24.734;2023-04-08T12:49:22;68056.91;;;25.01;28.55
6835;BME280;3455;42.150;24.734;2023-04-08T12:51:49;68171.16;;;25.94;27.31
6835;BME280;3455;42.150;24.734;2023-04-08T12:54:17;68376.63;;;27.13;26.11
6835;BME280;3455;42.150;24.734;2023-04-08T12:56:44;68586.94;;;28.79;23.79
6835;BME280;3455;42.150;24.734;2023-04-08T12:59:13;68484.56;;;28.12;24.18
6835;BME280;3455;42.150;24.734;2023-04-08T13:01:40;68250.31;;;26.57;26.00
6835;BME280;3455;42.150;24.734;2023-04-08T13:04:07;68127.69;;;25.27;27.74
6835;BME280;3455;42.150;24.734;2023-04-08T13:06:33;68031.31;;;24.67;29.06
6835;BME280;3455;42.150;24.734;2023-04-08T13:09:00;67878.72;;;24.13;29.23
6835;BME280;3455;42.150;24.734;2023-04-08T13:11:28;67861.53;;;23.63;29.58
6835;BME280;3455;42.150;24.734;2023-04-08T13:13:56;67789.31;;;23.04;29.76
6835;BME280;3455;42.150;24.734;2023-04-08T13:16:22;67736.06;;;22.64;31.21